KNQI/NQI METAR and TAF weather

Enter ICAO airport designator
Station Type Date Time Source
KNQI METAR 2022/01/28 06:16 UTC NOAA

KNQI 280616Z AUTO 03006KT 10SM OVC030 14/13 A3023 RMK AO2 T01440128 $


Station Type Date Time Source
KNQI Decoded METAR 2022/01/28 06:16 UTC NOAA

KINGSVILLE NAS, TX, United States (KNQI) 27-50N 097-81W 15M
Jan 28, 2022 - 01:16 AM EST / 2022.01.28 0616 UTC
Wind: from the NNE (030 degrees) at 7 MPH (6 KT):0
Visibility: 10 mile(s):0
Sky conditions: overcast
Temperature: 57.9 F (14.4 C)
Dew Point: 55.0 F (12.8 C)
Relative Humidity: 90%
Pressure (altimeter): 30.23 in. Hg (1023 hPa)
ob: KNQI 280616Z AUTO 03006KT 10SM OVC030 14/13 A3023 RMK AO2 T01440128
cycle: 6

Station Type Date Time Source
KNQI TAF 2022/01/27 23:06 UTC NOAA

TAF KNQI 2723/2823 06008KT 9999 BKN030 OVC045 QNH3013INS
TEMPO 2723/2803 8000 RA BR OVC025
BECMG 2803/2805 03008KT 8000 -SHRA BR OVC025 QNH3018INS
TEMPO 2808/2814 03015G24KT 3200 RA BR SCT006 OVC012
FM281500 01018G25KT 9999 VCSH SCT015 OVC025 510004 QNH3040INS
TEMPO 2815/2820 01020G27KT FEW015 SCT030 OVC050
FM282000 36012G18KT 9999 FEW030 SCT060 OVC120 500000 QNH3045INS AUTOMATED SENSOR METWATCH 2806 TIL 2813 T17/2723Z T08/2813Z FN20058

Example: see airport list